Links Sitemap Venhuizerweer voor mobiel

AMSTERDAM SCHIPHOL:
Amsterdam Airport Schiphol, Netherlands (EHAM) 52-18N 004-46E -2M
Aug 13, 2022 - 10:55 AM EDT / 2022.08.13 1455 UTC
Wind: from the ESE (120 degrees) at 6 MPH (5 KT) (direction variable):0
Visibility: greater than 7 mile(s):0
Temperature: 87 F (31 C)
Dew Point: 50 F (10 C)
Relative Humidity: 27%
Pressure (altimeter): 29.94 in. Hg (1014 hPa)
ob: EHAM 131455Z 12005KT 060V190 CAVOK 31/10 Q1014 NOSIG
cycle: 15
DEELEN:
Deelen, Netherlands (EHDL) 52-04N 005-53E 52M
Aug 13, 2022 - 10:55 AM EDT / 2022.08.13 1455 UTC
Wind: Variable at 8 MPH (7 KT):0
Visibility: greater than 7 mile(s):0
Temperature: 87 F (31 C)
Dew Point: 42 F (6 C)
Relative Humidity: 20%
Pressure (altimeter): 29.97 in. Hg (1015 hPa)
ob: EHDL 131455Z AUTO VRB07KT 9999 NCD 31/06 Q1015 BLU
cycle: 15
DE KOOY:
De Kooy, Netherlands (EHKD) 52-55N 004-47E 14M
Aug 13, 2022 - 10:55 AM EDT / 2022.08.13 1455 UTC
Wind: from the NE (040 degrees) at 12 MPH (10 KT) (direction variable):0
Visibility: greater than 7 mile(s):0
Temperature: 82 F (28 C)
Dew Point: 62 F (17 C)
Relative Humidity: 51%
Pressure (altimeter): 29.97 in. Hg (1015 hPa)
ob: EHKD 131455Z AUTO 04010KT 010V080 9999 NCD 28/17 Q1015 BLU NOSIG
cycle: 15
EELDE:
Groningen Airport Eelde, Netherlands (EHGG) 53-08N 006-35E 4M
Aug 13, 2022 - 10:55 AM EDT / 2022.08.13 1455 UTC
Wind: from the E (090 degrees) at 7 MPH (6 KT) (direction variable):0
Visibility: greater than 7 mile(s):0
Temperature: 87 F (31 C)
Dew Point: 51 F (11 C)
Relative Humidity: 29%
Pressure (altimeter): 30.00 in. Hg (1016 hPa)
ob: EHGG 131455Z AUTO 09006KT 030V150 9999 NSC 31/11 Q1016 NOSIG
cycle: 15
EINDHOVEN:
Eindhoven, Netherlands (EHEH) 51-27N 005-25E 28M
Aug 13, 2022 - 10:55 AM EDT / 2022.08.13 1455 UTC
Wind: from the ESE (110 degrees) at 8 MPH (7 KT) (direction variable):0
Visibility: greater than 7 mile(s):0
Temperature: 87 F (31 C)
Dew Point: 46 F (8 C)
Relative Humidity: 23%
Pressure (altimeter): 29.94 in. Hg (1014 hPa)
ob: EHEH 131455Z AUTO 11007KT 050V180 9999 NCD 31/08 Q1014 BLU NOSIG
cycle: 15
GILZE-RIJEN:
Gilze-Rijen, Netherlands (EHGR) 51-34N 004-56E 24M
Aug 13, 2022 - 10:55 AM EDT / 2022.08.13 1455 UTC
Wind: from the ENE (070 degrees) at 8 MPH (7 KT) (direction variable):0
Visibility: greater than 7 mile(s):0
Temperature: 89 F (32 C)
Dew Point: 46 F (8 C)
Relative Humidity: 22%
Pressure (altimeter): 29.94 in. Hg (1014 hPa)
ob: EHGR 131455Z AUTO 07007KT 340V140 9999 NCD 32/08 Q1014 BLU
cycle: 15
LEEUWARDEN:
Leeuwarden, Netherlands (EHLW) 53-13N 005-46E 11M
Aug 13, 2022 - 10:55 AM EDT / 2022.08.13 1455 UTC
Wind: from the SSE (160 degrees) at 8 MPH (7 KT) (direction variable):0
Visibility: greater than 7 mile(s):0
Temperature: 86 F (30 C)
Dew Point: 50 F (10 C)
Relative Humidity: 28%
Pressure (altimeter): 29.97 in. Hg (1015 hPa)
ob: EHLW 131455Z AUTO 16007KT 080V190 9999 NCD 30/10 Q1015 BLU
cycle: 15
MAASTRICHT:
Maastricht Airport Zuid Limburg, Netherlands (EHBK) 50-55N 005-47E 116M
Aug 13, 2022 - 10:55 AM EDT / 2022.08.13 1455 UTC
Wind: from the ENE (070 degrees) at 10 MPH (9 KT) (direction variable):0
Visibility: greater than 7 mile(s):0
Temperature: 87 F (31 C)
Dew Point: 42 F (6 C)
Relative Humidity: 20%
Pressure (altimeter): 29.94 in. Hg (1014 hPa)
ob: EHBK 131455Z AUTO 07009KT 010V140 9999 NCD 31/06 Q1014 NOSIG
cycle: 15
ROTTERDAM ZESTIENHOVEN:
Rotterdam Airport Zestienhoven, Netherlands (EHRD) 51-57N 004-27E -4M
Aug 13, 2022 - 10:55 AM EDT / 2022.08.13 1455 UTC
Wind: from the E (080 degrees) at 9 MPH (8 KT) (direction variable):0
Visibility: greater than 7 mile(s):0
Temperature: 87 F (31 C)
Dew Point: 46 F (8 C)
Relative Humidity: 23%
Pressure (altimeter): 29.94 in. Hg (1014 hPa)
ob: EHRD 131455Z AUTO 08008KT 050V130 9999 NCD 31/08 Q1014 NOSIG
cycle: 15
SOESTERBERG:
Soesterberg, Netherlands (EHSB) 52-08N 005-17E 25M
Nov 20, 2008 - 04:25 AM EST / 2008.11.20 0925 UTC
Wind: from the W (280 degrees) at 16 MPH (14 KT):0
Visibility: greater than 7 mile(s):0
Temperature: 51 F (11 C)
Dew Point: 48 F (9 C)
Relative Humidity: 87%
Pressure (altimeter): 29.83 in. Hg (1010 hPa)
ob: EHSB 200925Z AUTO 28014KT 9999 // 11/09 Q1010
cycle: 9
TWENTE:
Twenthe, Netherlands (EHTW) 52-16N 006-54E 57M
Apr 07, 2008 - 08:25 AM EDT / 2008.04.07 1225 UTC
Wind: from the N (010 degrees) at 7 MPH (6 KT):0
Sky conditions: mostly cloudy
Temperature: 46 F (8 C)
Dew Point: 24 F (-4 C)
Relative Humidity: 42%
Pressure (altimeter): 29.59 in. Hg (1002 hPa)
ob: EHTW 071225Z AUTO 01006KT //// // BKN200/// 08/M04 Q1002 RE//
cycle: 12
VALKENBURG:
Valkenburg, Netherlands (EHVB) 52-11N 004-25E 2M
Apr 01, 2010 - 03:55 AM EDT / 2010.04.01 0755 UTC
Wind: from the WSW (250 degrees) at 20 MPH (17 KT):0
Sky conditions: mostly cloudy
Temperature: 41 F (5 C)
Dew Point: 33 F (1 C)
Relative Humidity: 75%
Pressure (altimeter): 29.62 in. Hg (1003 hPa)
ob: EHVB 010755Z AUTO 25017KT 9999NDV FEW021/// BKN037/// 05/01 Q1003 BLU
cycle: 8
VLIELAND:
Vlieland, Netherlands (EHVL) 53-15N 004-55E 12M
Aug 13, 2022 - 10:55 AM EDT / 2022.08.13 1455 UTC
Wind: from the ENE (070 degrees) at 8 MPH (7 KT) (direction variable):0
Visibility: greater than 7 mile(s):0
Temperature: 84 F (29 C)
Dew Point: 53 F (12 C)
Relative Humidity: 34%
Pressure (altimeter): 30.00 in. Hg (1016 hPa)
ob: EHVL 131455Z AUTO 07007KT 030V110 9999 NCD 29/12 Q1016 BLU
cycle: 15
VOLKEL:
Volkel, Netherlands (EHVK) 51-39N 005-42E 21M
Aug 13, 2022 - 10:55 AM EDT / 2022.08.13 1455 UTC
Wind: from the E (090 degrees) at 3 MPH (3 KT) (direction variable):0
Visibility: greater than 7 mile(s):0
Temperature: 87 F (31 C)
Dew Point: 42 F (6 C)
Relative Humidity: 20%
Pressure (altimeter): 29.94 in. Hg (1014 hPa)
ob: EHVK 131455Z AUTO 09003KT 360V160 9999 NCD 31/06 Q1014 BLU
cycle: 15
WOENSDRECHT:
Woensdrecht, Netherlands (EHWO) 51-27N 004-20E 17M
Aug 13, 2022 - 10:55 AM EDT / 2022.08.13 1455 UTC
Wind: from the ENE (070 degrees) at 10 MPH (9 KT) (direction variable):0
Visibility: greater than 7 mile(s):0
Temperature: 89 F (32 C)
Dew Point: 42 F (6 C)
Relative Humidity: 19%
Pressure (altimeter): 29.94 in. Hg (1014 hPa)
ob: EHWO 131455Z AUTO 07009KT 340V120 9999 NCD 32/06 Q1014 BLU
cycle: 15
Copyright © 2005 - 2022 Venhuizerweer - Alle Rechten Voorbehouden